createdAt,value
2022-08-16T00:01:14.303Z,21.95
2022-08-16T00:03:40.928Z,21.92
2022-08-16T00:06:07.580Z,21.91
2022-08-16T00:08:36.816Z,21.87
2022-08-16T00:11:06.093Z,21.98
2022-08-16T00:13:33.765Z,21.92
2022-08-16T00:17:05.688Z,21.91
2022-08-16T00:18:55.306Z,21.82
2022-08-16T00:21:22.968Z,21.89
2022-08-16T00:23:49.396Z,21.90
2022-08-16T00:26:35.446Z,21.88
2022-08-16T00:29:02.088Z,21.94
2022-08-16T00:31:58.944Z,21.90
2022-08-16T00:34:19.595Z,21.82
2022-08-16T00:36:47.078Z,21.66
2022-08-16T00:39:15.757Z,21.57
2022-08-16T00:41:44.697Z,21.49
2022-08-16T00:44:14.264Z,21.38
2022-08-16T00:46:52.964Z,21.23
2022-08-16T00:49:39.796Z,21.08
2022-08-16T00:52:29.451Z,21.01
2022-08-16T00:54:56.841Z,20.95
2022-08-16T00:57:23.959Z,21.04
2022-08-16T00:59:59.057Z,20.96
2022-08-16T01:02:31.980Z,20.91
2022-08-16T01:05:09.009Z,20.96
2022-08-16T01:07:51.351Z,21.00
2022-08-16T01:10:31.507Z,20.92
2022-08-16T01:13:00.401Z,21.05
2022-08-16T01:15:28.036Z,20.92
2022-08-16T01:17:57.484Z,21.00
2022-08-16T01:20:30.404Z,21.02
2022-08-16T01:23:58.121Z,20.99
2022-08-16T01:26:33.799Z,20.96
2022-08-16T01:29:06.545Z,21.03
2022-08-16T01:31:37.542Z,21.09
2022-08-16T01:34:25.164Z,21.12
2022-08-16T01:37:03.837Z,21.15
2022-08-16T01:39:31.580Z,21.04
2022-08-16T01:42:02.923Z,21.07
2022-08-16T01:44:37.736Z,20.97
2022-08-16T01:47:05.305Z,21.11
2022-08-16T01:49:45.375Z,21.11
2022-08-16T01:52:28.283Z,21.09
2022-08-16T01:54:57.595Z,21.14
2022-08-16T01:57:24.730Z,21.08
2022-08-16T01:59:54.544Z,21.07
2022-08-16T02:02:27.145Z,21.01
2022-08-16T02:04:54.997Z,21.05
2022-08-16T02:07:23.711Z,21.11
2022-08-16T02:09:56.928Z,21.14
2022-08-16T02:12:51.585Z,21.02
2022-08-16T02:15:14.211Z,21.02
2022-08-16T02:17:40.564Z,20.94
2022-08-16T02:20:11.632Z,20.84
2022-08-16T02:22:38.854Z,20.69
2022-08-16T02:25:10.296Z,20.64
2022-08-16T02:27:40.940Z,20.46
2022-08-16T02:30:36.747Z,20.40
2022-08-16T02:33:03.120Z,20.18
2022-08-16T02:35:30.391Z,20.14
2022-08-16T02:37:56.810Z,20.19
2022-08-16T02:40:29.017Z,20.24
2022-08-16T02:42:55.891Z,20.23
2022-08-16T02:45:28.078Z,20.10
2022-08-16T02:48:00.965Z,20.22
2022-08-16T02:50:54.952Z,20.33
2022-08-16T02:53:28.557Z,20.29
2022-08-16T02:55:56.299Z,20.28
2022-08-16T02:58:25.412Z,20.26
2022-08-16T03:00:55.754Z,20.21
2022-08-16T03:03:22.844Z,20.13
2022-08-16T03:05:52.497Z,19.94
2022-08-16T03:08:50.430Z,19.93
2022-08-16T03:11:16.653Z,19.85
2022-08-16T03:13:50.634Z,19.61
2022-08-16T03:16:38.789Z,19.51
2022-08-16T03:19:07.489Z,19.60
2022-08-16T03:21:37.755Z,19.63
2022-08-16T03:24:05.379Z,19.69
2022-08-16T03:26:32.038Z,19.74
2022-08-16T03:28:58.507Z,19.69
2022-08-16T03:31:26.440Z,19.84
2022-08-16T03:34:01.261Z,19.94
2022-08-16T03:36:30.615Z,19.81
2022-08-16T03:38:57.833Z,19.68
2022-08-16T03:41:29.291Z,19.61
2022-08-16T03:44:01.724Z,19.69
2022-08-16T03:46:47.195Z,19.74
2022-08-16T03:49:15.108Z,19.74
2022-08-16T03:51:42.490Z,19.83
2022-08-16T03:54:12.740Z,19.81
2022-08-16T03:56:39.740Z,19.74
2022-08-16T03:59:23.837Z,19.84
2022-08-16T04:01:50.188Z,19.90
2022-08-16T04:04:32.401Z,19.88
2022-08-16T04:07:00.424Z,19.84
2022-08-16T04:09:30.139Z,19.83
2022-08-16T04:11:56.615Z,19.80
2022-08-16T04:14:31.141Z,19.69
2022-08-16T04:17:00.878Z,19.67
2022-08-16T04:19:31.809Z,19.61
2022-08-16T04:21:58.521Z,19.45
2022-08-16T04:24:28.811Z,19.57
2022-08-16T04:26:55.626Z,19.50
2022-08-16T04:29:24.942Z,19.55
2022-08-16T04:31:56.590Z,19.64
2022-08-16T04:34:31.139Z,19.68
2022-08-16T04:37:01.258Z,19.62
2022-08-16T04:39:44.915Z,19.66
2022-08-16T04:42:15.414Z,19.61
2022-08-16T04:44:54.421Z,19.50
2022-08-16T04:47:31.533Z,19.54
2022-08-16T04:49:59.397Z,19.58
2022-08-16T04:52:33.748Z,19.59
2022-08-16T04:55:13.928Z,19.45
2022-08-16T04:57:42.621Z,19.49
2022-08-16T05:00:30.628Z,19.50
2022-08-16T05:03:07.032Z,19.45
2022-08-16T05:05:44.929Z,19.53
2022-08-16T05:08:27.961Z,19.62
2022-08-16T05:11:05.538Z,19.74
2022-08-16T05:13:41.694Z,19.77
2022-08-16T05:16:16.753Z,19.88
2022-08-16T05:18:47.888Z,19.80
2022-08-16T05:21:14.424Z,19.68
2022-08-16T05:23:40.907Z,19.71
2022-08-16T05:26:19.506Z,19.76
2022-08-16T05:28:55.227Z,19.69
2022-08-16T05:31:23.034Z,19.62
2022-08-16T05:33:53.447Z,19.61
2022-08-16T05:36:21.366Z,19.58
2022-08-16T05:38:48.798Z,19.66
2022-08-16T05:41:15.442Z,19.57
2022-08-16T05:43:46.895Z,19.66
2022-08-16T05:46:30.502Z,19.73
2022-08-16T05:49:08.827Z,19.63
2022-08-16T05:51:41.599Z,19.67
2022-08-16T05:54:09.627Z,19.45
2022-08-16T05:56:39.215Z,19.67
2022-08-16T05:59:06.379Z,19.68
2022-08-16T06:01:38.966Z,19.74
2022-08-16T06:04:12.936Z,19.94
2022-08-16T06:06:55.690Z,20.04
2022-08-16T06:09:25.148Z,20.14
2022-08-16T06:11:52.179Z,20.24
2022-08-16T06:14:19.254Z,20.36
2022-08-16T06:16:50.996Z,20.33
2022-08-16T06:19:17.895Z,20.44
2022-08-16T06:21:44.736Z,20.44
2022-08-16T06:24:52.823Z,20.45
2022-08-16T06:26:58.532Z,19.82
2022-08-16T06:29:25.074Z,20.11
2022-08-16T06:31:51.889Z,20.26
2022-08-16T06:34:56.149Z,20.06
2022-08-16T06:37:04.874Z,19.80
2022-08-16T06:39:31.674Z,19.65
2022-08-16T06:42:01.115Z,19.91
2022-08-16T06:44:27.605Z,20.08
2022-08-16T06:46:54.192Z,20.15
2022-08-16T06:49:20.596Z,19.85
2022-08-16T06:51:48.436Z,20.21
2022-08-16T06:54:16.110Z,20.50
2022-08-16T06:56:42.653Z,20.53
2022-08-16T06:59:10.625Z,20.48
2022-08-16T07:01:46.173Z,20.65
2022-08-16T07:04:31.568Z,20.85
2022-08-16T07:07:00.776Z,21.02
2022-08-16T07:09:29.771Z,21.16
2022-08-16T07:12:03.687Z,21.33
2022-08-16T07:14:30.803Z,21.38
2022-08-16T07:16:58.287Z,21.41
2022-08-16T07:20:03.812Z,21.48
2022-08-16T07:22:37.345Z,21.53
2022-08-16T07:24:59.210Z,21.72
2022-08-16T07:27:25.707Z,21.75
2022-08-16T07:29:55.533Z,21.79
2022-08-16T07:32:29.603Z,21.94
2022-08-16T07:34:58.166Z,21.87
2022-08-16T07:37:24.824Z,21.94
2022-08-16T07:39:51.891Z,22.11
2022-08-16T07:42:20.373Z,22.12
2022-08-16T07:44:55.505Z,22.24
2022-08-16T07:47:24.607Z,22.32
2022-08-16T07:49:58.302Z,22.22
2022-08-16T07:52:25.005Z,22.45
2022-08-16T07:54:57.203Z,22.51
2022-08-16T07:57:24.196Z,22.45
2022-08-16T07:59:50.924Z,22.51
2022-08-16T08:02:20.605Z,22.59
2022-08-16T08:04:47.625Z,22.82
2022-08-16T08:07:16.283Z,22.89
2022-08-16T08:09:43.365Z,23.00
2022-08-16T08:12:10.008Z,22.98
2022-08-16T08:14:56.377Z,23.08
2022-08-16T08:17:22.839Z,23.12
2022-08-16T08:19:53.252Z,23.25
2022-08-16T08:22:22.337Z,23.26
2022-08-16T08:24:52.137Z,23.36
2022-08-16T08:27:22.410Z,23.48
2022-08-16T08:30:49.681Z,23.50
2022-08-16T08:32:58.311Z,23.54
2022-08-16T08:35:26.871Z,23.64
2022-08-16T08:37:56.554Z,23.74
2022-08-16T08:40:26.739Z,23.78
2022-08-16T08:43:00.123Z,23.84
2022-08-16T08:45:53.665Z,23.78
2022-08-16T08:48:33.271Z,23.96
2022-08-16T08:51:03.722Z,24.06
2022-08-16T08:53:30.847Z,23.95
2022-08-16T08:55:58.898Z,23.96
2022-08-16T08:58:26.035Z,24.01
2022-08-16T09:01:01.771Z,24.18
2022-08-16T09:03:29.235Z,24.19
2022-08-16T09:05:59.207Z,24.36
2022-08-16T09:08:27.363Z,24.36
2022-08-16T09:11:02.421Z,24.44
2022-08-16T09:13:32.697Z,24.57
2022-08-16T09:16:00.091Z,24.62
2022-08-16T09:18:35.779Z,24.76
2022-08-16T09:21:06.937Z,24.87
2022-08-16T09:23:36.471Z,24.98
2022-08-16T09:26:43.977Z,25.06
2022-08-16T09:29:14.554Z,25.02
2022-08-16T09:31:41.924Z,25.11
2022-08-16T09:34:09.203Z,25.10
2022-08-16T09:36:37.477Z,25.23
2022-08-16T09:39:15.826Z,25.15
2022-08-16T09:41:43.343Z,24.93
2022-08-16T09:45:13.146Z,25.08
2022-08-16T09:47:12.836Z,24.79
2022-08-16T09:49:40.966Z,24.65
2022-08-16T09:52:09.477Z,24.78
2022-08-16T09:54:37.205Z,24.94
2022-08-16T09:57:04.614Z,25.07
2022-08-16T09:59:31.326Z,25.10
2022-08-16T10:02:26.069Z,25.16
2022-08-16T10:04:54.443Z,25.18
2022-08-16T10:07:21.851Z,25.25
2022-08-16T10:09:55.833Z,25.56
2022-08-16T10:12:55.645Z,25.76
2022-08-16T10:15:22.633Z,25.65
2022-08-16T10:18:01.052Z,25.76
2022-08-16T10:20:34.508Z,25.97
2022-08-16T10:23:07.537Z,25.95
2022-08-16T10:27:17.756Z,25.03
2022-08-16T10:28:28.636Z,25.12
2022-08-16T10:30:56.558Z,25.35
2022-08-16T10:33:27.297Z,25.46
2022-08-16T10:36:02.625Z,25.51
2022-08-16T10:38:30.337Z,25.73
2022-08-16T10:41:00.289Z,25.96
2022-08-16T10:43:27.684Z,26.14
2022-08-16T10:46:00.201Z,26.27
2022-08-16T10:48:28.676Z,26.52
2022-08-16T10:50:58.484Z,26.65
2022-08-16T10:53:33.114Z,26.72
2022-08-16T10:56:52.833Z,26.76
2022-08-16T10:58:57.655Z,26.79
2022-08-16T11:02:21.705Z,26.80
2022-08-16T11:10:20.951Z,26.25
2022-08-16T11:12:52.630Z,26.47
2022-08-16T11:15:20.183Z,26.54
2022-08-16T11:18:47.889Z,26.68
2022-08-16T11:20:41.938Z,26.78
2022-08-16T11:23:09.820Z,26.99
2022-08-16T11:31:10.879Z,26.91
2022-08-16T11:33:55.523Z,26.81
2022-08-16T11:36:28.041Z,26.97
2022-08-16T11:38:57.734Z,27.10
2022-08-16T11:41:24.711Z,26.98
2022-08-16T11:43:52.923Z,27.30
2022-08-16T11:46:43.461Z,26.88
2022-08-16T11:49:12.703Z,26.89
2022-08-16T11:51:43.710Z,26.73
2022-08-16T11:54:20.582Z,26.95
2022-08-16T11:56:57.341Z,26.88
2022-08-16T11:59:28.703Z,27.21
2022-08-16T12:02:04.165Z,27.22
2022-08-16T12:04:45.505Z,27.40
2022-08-16T12:07:18.755Z,27.56
2022-08-16T12:09:45.523Z,27.60
2022-08-16T12:12:12.240Z,27.79
2022-08-16T12:14:38.607Z,27.86
2022-08-16T12:17:08.306Z,27.88
2022-08-16T12:19:35.940Z,27.94
2022-08-16T12:22:05.553Z,27.85
2022-08-16T12:24:32.862Z,27.87
2022-08-16T12:27:00.023Z,27.47
2022-08-16T12:29:29.461Z,27.73
2022-08-16T12:31:59.240Z,27.92
2022-08-16T12:34:29.590Z,28.18
2022-08-16T12:36:56.462Z,28.43
2022-08-16T12:39:23.769Z,28.63
2022-08-16T12:41:56.211Z,28.91
2022-08-16T12:44:25.783Z,29.10
2022-08-16T12:47:11.262Z,29.35
2022-08-16T12:49:42.268Z,29.44
2022-08-16T12:52:08.983Z,29.48
2022-08-16T12:54:37.309Z,29.36
2022-08-16T12:57:08.313Z,29.42
2022-08-16T12:59:40.539Z,29.70
2022-08-16T13:02:07.782Z,29.87
2022-08-16T13:04:39.245Z,29.90
2022-08-16T13:07:08.376Z,29.87
2022-08-16T13:09:42.626Z,29.96
2022-08-16T13:12:19.598Z,30.21
2022-08-16T13:14:48.011Z,30.28
2022-08-16T13:17:23.036Z,30.40
2022-08-16T13:20:11.286Z,30.61
2022-08-16T13:22:42.088Z,30.66
2022-08-16T13:25:18.966Z,30.76
2022-08-16T13:28:01.622Z,30.79
2022-08-16T13:30:37.358Z,30.94
2022-08-16T13:33:12.387Z,30.94
2022-08-16T13:35:43.064Z,31.00
2022-08-16T13:38:10.278Z,31.03
2022-08-16T13:40:48.527Z,30.78
2022-08-16T13:43:17.871Z,30.81
2022-08-16T13:45:44.867Z,30.53
2022-08-16T13:48:11.524Z,30.30
2022-08-16T13:50:51.890Z,30.26
2022-08-16T13:53:18.803Z,30.37
2022-08-16T13:55:58.957Z,30.24
2022-08-16T13:58:34.759Z,30.14
2022-08-16T14:01:04.640Z,30.38
2022-08-16T14:03:36.787Z,30.61
2022-08-16T14:06:03.633Z,30.76
2022-08-16T14:08:30.047Z,30.94
2022-08-16T14:10:56.823Z,30.94
2022-08-16T14:13:23.783Z,31.19
2022-08-16T14:15:50.633Z,31.29
2022-08-16T14:18:20.680Z,31.34
2022-08-16T14:20:48.847Z,31.40
2022-08-16T14:23:17.971Z,31.60
2022-08-16T14:25:54.036Z,31.80
2022-08-16T14:28:21.953Z,31.66
2022-08-16T14:30:50.497Z,31.57
2022-08-16T14:33:18.286Z,31.63
2022-08-16T14:35:48.995Z,31.68
2022-08-16T14:38:18.777Z,31.61
2022-08-16T14:40:50.969Z,31.54
2022-08-16T14:43:19.913Z,31.58
2022-08-16T14:45:46.981Z,31.59
2022-08-16T14:48:20.329Z,31.59
2022-08-16T14:50:51.086Z,31.75
2022-08-16T14:53:18.134Z,31.89
2022-08-16T14:55:44.491Z,32.02
2022-08-16T14:58:19.283Z,32.11
2022-08-16T15:00:47.679Z,32.33
2022-08-16T15:03:17.945Z,32.46
2022-08-16T15:05:44.295Z,32.70
2022-08-16T15:08:11.364Z,32.66
2022-08-16T15:10:42.749Z,32.44
2022-08-16T15:13:12.783Z,32.42
2022-08-16T15:15:41.920Z,32.64
2022-08-16T15:18:12.084Z,32.58
2022-08-16T15:20:39.440Z,32.90
2022-08-16T15:23:08.435Z,33.14
2022-08-16T15:25:36.704Z,33.24
2022-08-16T15:28:23.417Z,33.38
2022-08-16T15:30:59.693Z,33.23
2022-08-16T15:33:27.213Z,33.36
2022-08-16T15:35:55.489Z,33.56
2022-08-16T15:38:55.179Z,33.68
2022-08-16T15:41:13.342Z,33.57
2022-08-16T15:43:40.403Z,33.81
2022-08-16T15:46:35.002Z,33.86
2022-08-16T15:49:09.461Z,33.78
2022-08-16T15:51:36.807Z,33.69
2022-08-16T15:54:21.191Z,33.86
2022-08-16T15:56:54.894Z,33.91
2022-08-16T15:59:24.027Z,33.89
2022-08-16T16:01:54.483Z,33.97
2022-08-16T16:04:23.099Z,33.98
2022-08-16T16:06:55.009Z,34.14
2022-08-16T16:09:26.224Z,34.35
2022-08-16T16:12:16.223Z,34.48
2022-08-16T16:14:51.384Z,34.74
2022-08-16T16:17:17.793Z,34.03
2022-08-16T16:19:44.196Z,34.39
2022-08-16T16:22:10.816Z,34.33
2022-08-16T16:24:39.761Z,34.58
2022-08-16T16:27:06.701Z,34.86
2022-08-16T16:29:37.195Z,35.08
2022-08-16T16:32:07.585Z,35.40
2022-08-16T16:34:35.374Z,35.03
2022-08-16T16:37:02.554Z,34.65
2022-08-16T16:39:31.682Z,34.90
2022-08-16T16:41:59.426Z,35.25
2022-08-16T16:44:33.839Z,35.42
2022-08-16T16:47:03.219Z,35.71
2022-08-16T16:49:29.645Z,35.76
2022-08-16T16:52:06.433Z,35.79
2022-08-16T16:54:35.425Z,35.51
2022-08-16T16:57:02.167Z,35.25
2022-08-16T16:59:28.768Z,35.43
2022-08-16T17:02:38.180Z,35.65
2022-08-16T17:04:43.605Z,35.81
2022-08-16T17:07:11.080Z,36.02
2022-08-16T17:09:40.520Z,36.10
2022-08-16T17:12:08.318Z,36.14
2022-08-16T17:14:35.520Z,35.81
2022-08-16T17:17:08.612Z,35.70
2022-08-16T17:19:41.252Z,35.64
2022-08-16T17:22:19.743Z,35.69
2022-08-16T17:24:50.207Z,35.65
2022-08-16T17:27:19.327Z,35.69
2022-08-16T17:30:15.606Z,35.82
2022-08-16T17:32:48.009Z,35.82
2022-08-16T17:35:19.190Z,35.98
2022-08-16T17:37:51.531Z,35.91
2022-08-16T17:40:30.181Z,35.87
2022-08-16T17:43:10.124Z,35.72
2022-08-16T17:45:38.293Z,35.54
2022-08-16T17:48:05.402Z,35.34
2022-08-16T17:50:32.759Z,35.14
2022-08-16T17:53:00.654Z,34.95
2022-08-16T17:55:31.241Z,34.78
2022-08-16T17:57:57.902Z,34.58
2022-08-16T18:00:25.876Z,34.40
2022-08-16T18:02:57.991Z,34.23
2022-08-16T18:05:27.079Z,34.12
2022-08-16T18:07:53.909Z,33.96
2022-08-16T18:10:32.658Z,33.89
2022-08-16T18:13:01.073Z,33.69
2022-08-16T18:15:27.860Z,33.63
2022-08-16T18:17:54.657Z,33.56
2022-08-16T18:20:42.214Z,33.49
2022-08-16T18:23:26.787Z,33.24
2022-08-16T18:25:56.868Z,33.19
2022-08-16T18:28:24.263Z,33.01
2022-08-16T18:30:52.349Z,32.98
2022-08-16T18:33:20.971Z,32.92
2022-08-16T18:35:47.611Z,32.82
2022-08-16T18:38:14.275Z,32.70
2022-08-16T18:40:41.894Z,32.57
2022-08-16T18:43:13.338Z,32.50
2022-08-16T18:45:42.215Z,32.47
2022-08-16T18:48:10.722Z,32.37
2022-08-16T18:51:03.120Z,32.34
2022-08-16T18:53:27.983Z,32.23
2022-08-16T18:55:57.082Z,32.24
2022-08-16T18:58:24.578Z,32.10
2022-08-16T19:00:56.697Z,32.03
2022-08-16T19:03:30.084Z,31.88
2022-08-16T19:06:04.464Z,31.87
2022-08-16T19:08:31.616Z,31.83
2022-08-16T19:10:58.032Z,31.65
2022-08-16T19:13:26.839Z,31.64
2022-08-16T19:15:55.933Z,31.50
2022-08-16T19:18:25.087Z,31.38
2022-08-16T19:20:54.507Z,31.34
2022-08-16T19:23:24.512Z,31.28
2022-08-16T19:25:57.159Z,31.23
2022-08-16T19:28:57.910Z,31.23
2022-08-16T19:31:29.240Z,31.20
2022-08-16T19:33:56.638Z,31.13
2022-08-16T19:36:31.068Z,31.15
2022-08-16T19:39:05.471Z,31.05
2022-08-16T19:41:34.330Z,30.92
2022-08-16T19:44:00.711Z,30.82
2022-08-16T19:46:27.061Z,30.68
2022-08-16T19:48:53.409Z,30.26
2022-08-16T19:51:19.778Z,30.16
2022-08-16T19:53:46.133Z,30.05
2022-08-16T19:56:12.574Z,29.83
2022-08-16T19:58:47.352Z,29.42
2022-08-16T20:01:25.318Z,29.15
2022-08-16T20:03:51.876Z,29.23
2022-08-16T20:06:38.086Z,29.02
2022-08-16T20:09:04.937Z,28.88
2022-08-16T20:11:31.479Z,28.97
2022-08-16T20:13:58.088Z,29.01
2022-08-16T20:16:24.502Z,28.73
2022-08-16T20:18:51.170Z,28.36
2022-08-16T20:21:18.043Z,28.27
2022-08-16T20:23:44.463Z,28.30
2022-08-16T20:26:10.799Z,28.41
2022-08-16T20:28:51.684Z,28.35
2022-08-16T20:31:19.806Z,28.38
2022-08-16T20:33:46.382Z,28.32
2022-08-16T20:36:16.102Z,28.31
2022-08-16T20:38:45.733Z,28.38
2022-08-16T20:41:12.450Z,28.29
2022-08-16T20:43:38.886Z,28.31
2022-08-16T20:46:05.397Z,28.31
2022-08-16T20:48:31.721Z,28.22
2022-08-16T20:50:58.108Z,28.23
2022-08-16T20:53:24.440Z,28.22
2022-08-16T20:55:50.867Z,28.19
2022-08-16T20:58:17.198Z,28.03
2022-08-16T21:00:45.255Z,28.03
2022-08-16T21:03:13.007Z,28.05
2022-08-16T21:05:39.508Z,27.92
2022-08-16T21:08:37.797Z,27.85
2022-08-16T21:10:52.524Z,27.79
2022-08-16T21:13:20.925Z,27.80
2022-08-16T21:15:47.479Z,27.81
2022-08-16T21:18:13.811Z,27.70
2022-08-16T21:20:40.215Z,27.69
2022-08-16T21:23:08.695Z,27.84
2022-08-16T21:25:36.402Z,27.81
2022-08-16T21:28:38.677Z,27.79
2022-08-16T21:30:52.335Z,27.55
2022-08-16T21:33:19.702Z,27.48
2022-08-16T21:35:47.739Z,27.47
2022-08-16T21:38:29.857Z,27.29
2022-08-16T21:40:57.038Z,27.27
2022-08-16T21:43:25.278Z,27.20
2022-08-16T21:45:54.176Z,27.29
2022-08-16T21:48:34.392Z,27.08
2022-08-16T21:51:06.122Z,27.16
2022-08-16T21:53:33.145Z,27.05
2022-08-16T21:56:00.787Z,27.18
2022-08-16T21:58:27.514Z,27.23
2022-08-16T22:00:53.839Z,27.17
2022-08-16T22:03:20.993Z,26.61
2022-08-16T22:06:11.661Z,26.94
2022-08-16T22:08:35.673Z,26.99
2022-08-16T22:11:12.205Z,26.59
2022-08-16T22:13:38.661Z,26.65
2022-08-16T22:16:07.481Z,26.70
2022-08-16T22:18:33.836Z,26.68
2022-08-16T22:21:00.191Z,26.73
2022-08-16T22:23:26.767Z,26.49
2022-08-16T22:25:55.014Z,26.46
2022-08-16T22:28:22.778Z,26.66
2022-08-16T22:30:49.732Z,26.63
2022-08-16T22:33:19.607Z,26.65
2022-08-16T22:36:12.717Z,26.57
2022-08-16T22:38:56.254Z,26.49
2022-08-16T22:41:24.765Z,26.32
2022-08-16T22:43:51.395Z,26.35
2022-08-16T22:46:19.292Z,26.32
2022-08-16T22:48:45.789Z,26.28
2022-08-16T22:51:12.955Z,26.17
2022-08-16T22:53:39.356Z,25.79
2022-08-16T22:56:05.911Z,25.70
2022-08-16T22:58:36.362Z,25.82
2022-08-16T23:01:04.353Z,25.69
2022-08-16T23:03:30.853Z,25.85
2022-08-16T23:06:00.275Z,26.00
2022-08-16T23:08:38.676Z,26.09
2022-08-16T23:11:20.775Z,26.00
2022-08-16T23:13:53.185Z,25.88
2022-08-16T23:16:33.629Z,25.83
2022-08-16T23:19:09.593Z,25.89
2022-08-16T23:21:38.081Z,26.03
2022-08-16T23:24:06.394Z,26.02
2022-08-16T23:26:47.312Z,25.98
2022-08-16T23:29:24.013Z,25.96
2022-08-16T23:31:55.795Z,25.91
2022-08-16T23:34:22.579Z,25.85
2022-08-16T23:36:48.977Z,25.74
2022-08-16T23:39:15.445Z,25.52
2022-08-16T23:41:41.967Z,25.45
2022-08-16T23:44:57.429Z,25.18
2022-08-16T23:46:55.214Z,24.85
2022-08-16T23:50:01.897Z,24.56
2022-08-16T23:52:10.048Z,24.62
2022-08-16T23:54:36.701Z,24.68
2022-08-16T23:57:03.449Z,24.75
2022-08-16T23:59:29.832Z,24.78
